createdAt,value
2023-05-15T00:01:15.671Z,126.66
2023-05-15T00:04:21.660Z,124.04
2023-05-15T00:07:28.572Z,121.25
2023-05-15T00:10:34.457Z,120.50
2023-05-15T00:13:46.249Z,114.04
2023-05-15T00:16:52.570Z,113.80
2023-05-15T00:20:01.856Z,109.48
2023-05-15T00:23:07.854Z,108.60
2023-05-15T00:26:16.010Z,118.16
2023-05-15T00:29:24.481Z,140.78
2023-05-15T00:32:31.265Z,132.23
2023-05-15T00:35:37.298Z,121.38
2023-05-15T00:38:48.392Z,126.08
2023-05-15T00:41:59.048Z,132.09
2023-05-15T00:45:14.421Z,131.78
2023-05-15T00:48:22.937Z,123.05
2023-05-15T00:51:31.588Z,135.03
2023-05-15T00:54:37.791Z,128.02
2023-05-15T00:57:47.339Z,139.95
2023-05-15T01:00:57.404Z,128.20
2023-05-15T01:04:06.864Z,127.97
2023-05-15T01:07:13.171Z,119.01
2023-05-15T01:10:24.417Z,121.28
2023-05-15T01:13:32.068Z,112.58
2023-05-15T01:16:41.871Z,119.78
2023-05-15T01:19:57.362Z,114.38
2023-05-15T01:23:18.705Z,115.13
2023-05-15T01:27:04.804Z,107.02
2023-05-15T01:30:25.420Z,113.87
2023-05-15T01:33:39.306Z,102.86
2023-05-15T01:36:56.906Z,116.19
2023-05-15T01:40:09.691Z,114.64
2023-05-15T01:43:25.346Z,116.18
2023-05-15T01:46:48.214Z,104.93
2023-05-15T01:50:00.542Z,119.87
2023-05-15T01:53:12.567Z,111.31
2023-05-15T01:56:22.351Z,116.83
2023-05-15T01:59:42.079Z,104.51
2023-05-15T02:02:53.736Z,113.68
2023-05-15T02:06:00.525Z,112.52
2023-05-15T02:09:08.015Z,112.40
2023-05-15T02:12:16.512Z,118.58
2023-05-15T02:15:25.156Z,115.04
2023-05-15T02:18:34.883Z,118.68
2023-05-15T02:21:41.197Z,120.40
2023-05-15T02:24:48.467Z,127.75
2023-05-15T02:28:04.110Z,129.91
2023-05-15T02:31:24.749Z,122.40
2023-05-15T02:34:49.004Z,133.00
2023-05-15T02:38:03.690Z,149.58
2023-05-15T02:41:12.973Z,143.67
2023-05-15T02:44:22.829Z,137.15
2023-05-15T02:47:35.512Z,130.53
2023-05-15T02:50:45.321Z,135.02
2023-05-15T02:53:52.476Z,123.79
2023-05-15T02:57:01.818Z,127.82
2023-05-15T03:00:12.101Z,129.04
2023-05-15T03:03:25.021Z,126.19
2023-05-15T03:06:33.642Z,124.51
2023-05-15T03:09:40.557Z,131.02
2023-05-15T03:12:46.578Z,122.68
2023-05-15T03:15:53.454Z,133.01
2023-05-15T03:18:59.418Z,129.12
2023-05-15T03:22:09.475Z,129.97
2023-05-15T03:25:16.109Z,123.66
2023-05-15T03:28:22.820Z,137.86
2023-05-15T03:31:28.867Z,140.70
2023-05-15T03:34:35.865Z,134.44
2023-05-15T03:37:44.520Z,138.65
2023-05-15T03:40:51.382Z,139.19
2023-05-15T03:43:57.650Z,156.02
2023-05-15T03:47:04.652Z,166.48
2023-05-15T03:50:13.026Z,147.27
2023-05-15T03:53:22.557Z,145.91
2023-05-15T03:56:28.579Z,136.34
2023-05-15T03:59:35.436Z,146.91
2023-05-15T04:02:42.711Z,132.37
2023-05-15T04:05:50.515Z,139.45
2023-05-15T04:08:59.055Z,136.15
2023-05-15T04:12:06.269Z,139.68
2023-05-15T04:15:21.842Z,133.85
2023-05-15T04:18:28.737Z,140.10
2023-05-15T04:21:34.701Z,145.70
2023-05-15T04:24:44.237Z,148.87
2023-05-15T04:27:50.406Z,154.62
2023-05-15T04:30:58.959Z,164.20
2023-05-15T04:34:05.457Z,158.39
2023-05-15T04:37:12.427Z,155.26
2023-05-15T04:40:21.533Z,137.56
2023-05-15T04:43:28.344Z,143.56
2023-05-15T04:46:37.729Z,142.74
2023-05-15T04:49:45.725Z,145.45
2023-05-15T04:52:51.619Z,141.81
2023-05-15T04:56:01.093Z,142.30
2023-05-15T04:59:07.106Z,127.75
2023-05-15T05:02:14.339Z,135.07
2023-05-15T05:05:20.961Z,139.31
2023-05-15T05:08:27.702Z,137.85
2023-05-15T05:11:39.550Z,125.68
2023-05-15T05:14:48.402Z,135.49
2023-05-15T05:17:54.556Z,136.12
2023-05-15T05:21:04.329Z,141.90
2023-05-15T05:24:12.535Z,140.48
2023-05-15T05:27:22.280Z,157.86
2023-05-15T05:30:28.228Z,157.55
2023-05-15T05:33:36.724Z,166.17
2023-05-15T05:36:42.634Z,154.40
2023-05-15T05:39:55.452Z,160.97
2023-05-15T05:43:11.326Z,169.06
2023-05-15T05:46:18.159Z,168.71
2023-05-15T05:49:24.416Z,165.33
2023-05-15T05:52:32.794Z,166.87
2023-05-15T05:55:38.893Z,179.16
2023-05-15T05:58:48.578Z,184.54
2023-05-15T06:01:54.634Z,188.28
2023-05-15T06:05:01.740Z,195.89
2023-05-15T06:08:08.393Z,221.51
2023-05-15T06:11:15.091Z,211.89
2023-05-15T06:14:23.616Z,229.88
2023-05-15T06:17:30.308Z,233.92
2023-05-15T06:20:36.670Z,241.70
2023-05-15T06:23:43.325Z,227.95
2023-05-15T06:26:50.422Z,236.06
2023-05-15T06:30:05.022Z,244.21
2023-05-15T06:33:10.970Z,240.76
2023-05-15T06:36:17.717Z,233.22
2023-05-15T06:39:26.982Z,225.18
2023-05-15T06:42:33.823Z,245.28
2023-05-15T06:45:43.110Z,226.55
2023-05-15T06:48:51.335Z,226.07
2023-05-15T06:51:59.288Z,205.43
2023-05-15T06:55:05.905Z,204.50
2023-05-15T06:58:12.029Z,181.22
2023-05-15T07:01:21.482Z,199.25
2023-05-15T07:04:27.682Z,196.13
2023-05-15T07:07:34.549Z,196.69
2023-05-15T07:10:40.433Z,189.00
2023-05-15T07:13:47.400Z,191.18
2023-05-15T07:16:56.293Z,188.51
2023-05-15T07:20:17.121Z,185.39
2023-05-15T07:23:26.780Z,174.01
2023-05-15T07:26:40.995Z,185.30
2023-05-15T07:29:52.791Z,149.93
2023-05-15T07:33:02.188Z,143.66
2023-05-15T07:36:11.719Z,146.64
2023-05-15T07:39:22.739Z,139.32
2023-05-15T07:42:29.388Z,137.21
2023-05-15T07:45:36.250Z,149.34
2023-05-15T07:48:44.953Z,133.22
2023-05-15T07:51:52.081Z,119.80
2023-05-15T07:54:59.013Z,102.73
2023-05-15T07:58:06.722Z,108.19
2023-05-15T08:01:20.688Z,96.08
2023-05-15T08:04:30.011Z,107.88
2023-05-15T08:07:38.235Z,104.58
2023-05-15T08:10:45.035Z,92.19
2023-05-15T08:13:51.093Z,89.03
2023-05-15T08:16:59.958Z,84.92
2023-05-15T08:20:29.269Z,64.47
2023-05-15T08:23:39.516Z,83.12
2023-05-15T08:26:45.677Z,89.14
2023-05-15T08:29:53.174Z,97.24
2023-05-15T08:33:00.382Z,98.09
2023-05-15T08:36:11.529Z,96.70
2023-05-15T08:39:22.555Z,69.84
2023-05-15T08:42:43.290Z,79.00
2023-05-15T08:45:58.779Z,74.27
2023-05-15T08:49:27.069Z,97.21
2023-05-15T08:52:37.589Z,86.42
2023-05-15T08:55:45.499Z,85.67
2023-05-15T08:58:52.705Z,86.81
2023-05-15T09:02:00.475Z,76.67
2023-05-15T09:05:13.428Z,75.56
2023-05-15T09:08:25.981Z,77.91
2023-05-15T09:11:36.599Z,61.39
2023-05-15T09:14:44.263Z,66.96
2023-05-15T09:17:50.545Z,68.10
2023-05-15T09:20:57.352Z,75.60
2023-05-15T09:24:28.479Z,78.27
2023-05-15T09:27:49.048Z,87.32
2023-05-15T09:31:05.016Z,88.84
2023-05-15T09:34:15.011Z,92.35
2023-05-15T09:37:34.298Z,99.92
2023-05-15T09:40:44.007Z,98.12
2023-05-15T09:43:49.853Z,90.06
2023-05-15T09:46:57.329Z,100.76
2023-05-15T09:50:03.384Z,97.54
2023-05-15T09:53:14.191Z,105.90
2023-05-15T09:56:23.219Z,96.18
2023-05-15T09:59:30.115Z,103.08
2023-05-15T10:02:36.625Z,97.69
2023-05-15T10:05:46.646Z,99.59
2023-05-15T10:08:56.261Z,94.75
2023-05-15T10:12:09.025Z,95.89
2023-05-15T10:15:16.954Z,97.04
2023-05-15T10:18:30.744Z,98.83
2023-05-15T10:21:40.130Z,90.24
2023-05-15T10:24:52.144Z,94.46
2023-05-15T10:28:02.934Z,104.70
2023-05-15T10:31:14.007Z,104.16
2023-05-15T10:34:21.747Z,101.13
2023-05-15T10:37:30.645Z,105.67
2023-05-15T10:40:41.309Z,105.61
2023-05-15T10:43:53.329Z,127.16
2023-05-15T10:46:59.671Z,128.40
2023-05-15T10:50:08.449Z,137.46
2023-05-15T10:53:14.673Z,126.73
2023-05-15T10:56:21.765Z,111.47
2023-05-15T10:59:37.936Z,111.83
2023-05-15T11:02:44.796Z,107.75
2023-05-15T11:06:13.169Z,100.52
2023-05-15T11:09:41.806Z,98.05
2023-05-15T11:13:05.613Z,89.60
2023-05-15T11:16:16.587Z,103.67
2023-05-15T11:19:35.653Z,108.27
2023-05-15T11:22:42.343Z,112.09
2023-05-15T11:25:58.862Z,102.67
2023-05-15T11:29:23.364Z,105.82
2023-05-15T11:32:51.320Z,95.64
2023-05-15T11:36:03.209Z,108.85
2023-05-15T11:39:14.919Z,99.93
2023-05-15T11:42:22.721Z,104.08
2023-05-15T11:45:28.992Z,95.20
2023-05-15T11:48:44.581Z,105.56
2023-05-15T11:51:54.069Z,97.08
2023-05-15T11:55:03.233Z,102.49
2023-05-15T11:58:16.562Z,96.01
2023-05-15T12:01:23.332Z,99.78
2023-05-15T12:04:32.212Z,87.80
2023-05-15T12:07:42.168Z,88.55
2023-05-15T12:10:52.262Z,72.84
2023-05-15T12:13:59.821Z,80.03
2023-05-15T12:17:07.039Z,81.80
2023-05-15T12:20:21.122Z,87.63
2023-05-15T12:23:29.332Z,80.34
2023-05-15T12:26:39.694Z,79.67
2023-05-15T12:29:46.823Z,78.64
2023-05-15T12:32:54.712Z,76.71
2023-05-15T12:36:03.343Z,76.72
2023-05-15T12:39:11.476Z,83.10
2023-05-15T12:42:20.766Z,76.46
2023-05-15T12:45:29.112Z,83.55
2023-05-15T12:48:36.360Z,74.51
2023-05-15T12:51:48.813Z,82.83
2023-05-15T12:54:58.624Z,71.22
2023-05-15T12:58:11.893Z,77.36
2023-05-15T13:01:18.934Z,82.75
2023-05-15T13:04:26.354Z,87.12
2023-05-15T13:07:35.859Z,92.92
2023-05-15T13:10:42.821Z,78.41
2023-05-15T13:13:52.338Z,79.60
2023-05-15T13:17:05.119Z,73.20
2023-05-15T13:20:12.617Z,67.38
2023-05-15T13:23:25.276Z,70.77
2023-05-15T13:26:31.153Z,64.82
2023-05-15T13:29:38.540Z,60.24
2023-05-15T13:32:44.840Z,70.31
2023-05-15T13:35:52.137Z,76.33
2023-05-15T13:39:06.375Z,76.74
2023-05-15T13:42:13.181Z,70.66
2023-05-15T13:45:20.360Z,5299.01
2023-05-15T13:48:27.283Z,714.09
2023-05-15T13:51:33.390Z,1914.19
2023-05-15T13:54:42.908Z,513.93
2023-05-15T13:57:48.997Z,7526.46
2023-05-15T14:00:55.941Z,58223.69
2023-05-15T14:04:05.092Z,20072.60
2023-05-15T14:07:11.895Z,1596.65
2023-05-15T14:10:24.347Z,15026.80
2023-05-15T14:13:32.006Z,1445.90
2023-05-15T14:16:38.038Z,6171.20
2023-05-15T14:19:45.101Z,14893.41
2023-05-15T14:22:54.132Z,23447.66
2023-05-15T14:26:05.564Z,83398.73
2023-05-15T14:29:11.589Z,78174.56
2023-05-15T14:32:19.274Z,93741.16
2023-05-15T14:35:32.237Z,42960.93
2023-05-15T14:38:45.841Z,46827.49
2023-05-15T14:41:54.520Z,51768.34
2023-05-15T14:45:14.983Z,48316.66
2023-05-15T14:48:27.422Z,47256.83
2023-05-15T14:51:41.741Z,67265.40
2023-05-15T14:54:56.930Z,72.21
2023-05-15T14:58:11.632Z,74.80
2023-05-15T15:01:22.278Z,73.63
2023-05-15T15:04:30.736Z,112.60
2023-05-15T15:08:05.126Z,2444.44
2023-05-15T15:11:12.588Z,197.13
2023-05-15T15:14:24.437Z,62.01
2023-05-15T15:17:31.269Z,70.38
2023-05-15T15:20:37.460Z,78.88
2023-05-15T15:23:45.031Z,73.04
2023-05-15T15:26:53.256Z,59.00
2023-05-15T15:30:04.264Z,67.92
2023-05-15T15:33:10.339Z,64.08
2023-05-15T15:36:17.308Z,79.63
2023-05-15T15:39:23.717Z,89.30
2023-05-15T15:42:31.715Z,89.16
2023-05-15T15:45:40.419Z,81.10
2023-05-15T15:48:47.156Z,83.68
2023-05-15T15:51:53.153Z,67.45
2023-05-15T15:54:59.959Z,81.31
2023-05-15T15:58:06.583Z,74.88
2023-05-15T16:01:16.229Z,83.27
2023-05-15T16:04:23.197Z,216.15
2023-05-15T16:07:30.463Z,180.52
2023-05-15T16:10:39.363Z,65.69
2023-05-15T16:13:46.497Z,72.66
2023-05-15T16:16:55.304Z,62.26
2023-05-15T16:20:02.177Z,76.29
2023-05-15T16:23:09.647Z,80.19
2023-05-15T16:26:16.404Z,2171.25
2023-05-15T16:29:22.932Z,6581.47
2023-05-15T16:32:34.232Z,173.62
2023-05-15T16:35:40.262Z,118.54
2023-05-15T16:38:47.403Z,70.73
2023-05-15T16:41:53.416Z,69.07
2023-05-15T16:45:00.236Z,77.20
2023-05-15T16:48:09.630Z,70.06
2023-05-15T16:51:17.184Z,72.41
2023-05-15T16:54:23.183Z,61.81
2023-05-15T16:57:29.924Z,70.88
2023-05-15T17:00:35.836Z,68.16
2023-05-15T17:03:45.597Z,66.40
2023-05-15T17:06:51.838Z,71.93
2023-05-15T17:09:58.738Z,73.74
2023-05-15T17:13:04.941Z,76.31
2023-05-15T17:16:11.791Z,74.25
2023-05-15T17:19:20.507Z,76.90
2023-05-15T17:22:27.373Z,83.86
2023-05-15T17:25:36.689Z,83.44
2023-05-15T17:28:43.742Z,81.91
2023-05-15T17:31:50.281Z,82.35
2023-05-15T17:34:59.713Z,80.84
2023-05-15T17:38:05.716Z,69.14
2023-05-15T17:41:12.453Z,82.83
2023-05-15T17:44:18.394Z,85.28
2023-05-15T17:47:25.189Z,80.01
2023-05-15T17:50:38.154Z,73.81
2023-05-15T17:53:45.049Z,75.28
2023-05-15T17:56:53.821Z,70.99
2023-05-15T18:00:00.776Z,69.44
2023-05-15T18:03:18.129Z,59.48
2023-05-15T18:06:28.493Z,79.91
2023-05-15T18:09:34.463Z,65.75
2023-05-15T18:12:41.351Z,79.27
2023-05-15T18:15:47.481Z,94.20
2023-05-15T18:18:55.354Z,101.94
2023-05-15T18:22:04.404Z,93.91
2023-05-15T18:25:11.927Z,91.99
2023-05-15T18:28:21.014Z,73.36
2023-05-15T18:31:27.948Z,95.97
2023-05-15T18:34:34.702Z,82.66
2023-05-15T18:37:44.584Z,97.66
2023-05-15T18:40:51.131Z,94.50
2023-05-15T18:43:58.216Z,88.96
2023-05-15T18:47:04.745Z,83.32
2023-05-15T18:50:14.443Z,80.47
2023-05-15T18:53:23.386Z,67.63
2023-05-15T18:56:30.112Z,83.94
2023-05-15T18:59:38.851Z,81.77
2023-05-15T19:02:45.907Z,79.99
2023-05-15T19:05:52.472Z,74.86
2023-05-15T19:09:01.918Z,86.94
2023-05-15T19:12:08.969Z,73.32
2023-05-15T19:15:18.395Z,90.02
2023-05-15T19:18:24.453Z,78.20
2023-05-15T19:21:55.156Z,83.26
2023-05-15T19:25:03.867Z,95.22
2023-05-15T19:28:11.202Z,105.65
2023-05-15T19:31:30.891Z,113.07
2023-05-15T19:34:38.522Z,93.47
2023-05-15T19:37:45.817Z,98.08
2023-05-15T19:40:55.220Z,105.48
2023-05-15T19:44:02.293Z,106.57
2023-05-15T19:47:12.074Z,108.62
2023-05-15T19:50:22.714Z,105.39
2023-05-15T19:53:30.662Z,105.15
2023-05-15T19:56:41.345Z,101.20
2023-05-15T19:59:53.774Z,108.05
2023-05-15T20:03:00.990Z,104.44
2023-05-15T20:06:08.308Z,98.80
2023-05-15T20:09:20.408Z,91.36
2023-05-15T20:12:32.661Z,90.78
2023-05-15T20:15:40.203Z,92.03
2023-05-15T20:18:48.250Z,91.73
2023-05-15T20:22:07.407Z,87.76
2023-05-15T20:25:15.454Z,100.06
2023-05-15T20:28:44.329Z,93.42
2023-05-15T20:31:51.976Z,95.62
2023-05-15T20:34:58.732Z,103.56
2023-05-15T20:38:05.542Z,124.15
2023-05-15T20:41:11.540Z,118.33
2023-05-15T20:44:21.279Z,127.42
2023-05-15T20:47:27.256Z,115.91
2023-05-15T20:50:34.231Z,126.83
2023-05-15T20:53:46.246Z,121.37
2023-05-15T20:56:53.050Z,114.45
2023-05-15T21:00:01.525Z,124.98
2023-05-15T21:03:09.712Z,121.41
2023-05-15T21:06:17.677Z,113.40
2023-05-15T21:09:24.552Z,116.45
2023-05-15T21:12:34.914Z,115.87
2023-05-15T21:15:44.628Z,124.13
2023-05-15T21:18:50.618Z,123.11
2023-05-15T21:21:57.498Z,120.46
2023-05-15T21:25:04.875Z,115.48
2023-05-15T21:28:11.756Z,112.43
2023-05-15T21:31:20.339Z,104.40
2023-05-15T21:34:27.071Z,106.29
2023-05-15T21:37:34.499Z,101.42
2023-05-15T21:40:41.297Z,105.00
2023-05-15T21:43:52.592Z,101.42
2023-05-15T21:47:02.059Z,99.12
2023-05-15T21:50:09.980Z,101.27
2023-05-15T21:53:17.480Z,104.52
2023-05-15T21:56:26.597Z,102.15
2023-05-15T21:59:35.322Z,93.72
2023-05-15T22:02:43.951Z,89.99
2023-05-15T22:05:51.954Z,97.06
2023-05-15T22:08:57.932Z,88.61
2023-05-15T22:12:04.964Z,95.64
2023-05-15T22:15:16.489Z,89.19
2023-05-15T22:18:26.476Z,87.28
2023-05-15T22:21:34.492Z,85.28
2023-05-15T22:24:41.186Z,96.89
2023-05-15T22:27:47.082Z,97.81
2023-05-15T22:30:59.823Z,102.24
2023-05-15T22:34:15.132Z,104.18
2023-05-15T22:37:22.142Z,120.41
2023-05-15T22:40:28.487Z,134.34
2023-05-15T22:43:35.498Z,153.85
2023-05-15T22:46:41.414Z,158.35
2023-05-15T22:49:50.899Z,158.40
2023-05-15T22:52:57.493Z,127.51
2023-05-15T22:56:04.140Z,132.07
2023-05-15T22:59:10.065Z,125.83
2023-05-15T23:02:16.804Z,126.16
2023-05-15T23:05:26.292Z,120.58
2023-05-15T23:08:37.404Z,128.27
2023-05-15T23:11:43.400Z,125.22
2023-05-15T23:14:53.119Z,137.78
2023-05-15T23:18:05.147Z,138.03
2023-05-15T23:21:14.488Z,139.22
2023-05-15T23:24:20.308Z,135.72
2023-05-15T23:27:33.468Z,147.59
2023-05-15T23:30:48.645Z,141.87
2023-05-15T23:33:55.467Z,158.35
2023-05-15T23:37:05.357Z,152.24
2023-05-15T23:40:13.648Z,156.78
2023-05-15T23:43:19.637Z,156.13
2023-05-15T23:46:26.470Z,161.90
2023-05-15T23:49:33.801Z,151.77
2023-05-15T23:52:46.519Z,155.56
2023-05-15T23:55:52.500Z,131.53
2023-05-15T23:59:01.744Z,133.14
